createdAt,value
2018-07-16T00:00:12.655Z,176.65
2018-07-16T00:02:44.173Z,177.70
2018-07-16T00:05:16.360Z,177.00
2018-07-16T00:07:47.633Z,178.25
2018-07-16T00:10:19.028Z,179.90
2018-07-16T00:12:50.350Z,180.37
2018-07-16T00:15:21.589Z,182.70
2018-07-16T00:17:54.752Z,179.68
2018-07-16T00:20:26.242Z,180.12
2018-07-16T00:22:57.263Z,180.85
2018-07-16T00:25:28.935Z,181.35
2018-07-16T00:27:59.968Z,180.20
2018-07-16T00:30:33.955Z,181.82
2018-07-16T00:33:05.643Z,180.52
2018-07-16T00:35:37.786Z,181.63
2018-07-16T00:38:10.654Z,183.65
2018-07-16T00:40:42.159Z,182.25
2018-07-16T00:43:13.201Z,181.90
2018-07-16T00:45:44.343Z,182.55
2018-07-16T00:48:15.995Z,184.52
2018-07-16T00:50:48.370Z,184.55
2018-07-16T00:53:19.464Z,180.30
2018-07-16T00:55:51.106Z,178.00
2018-07-16T00:58:22.318Z,187.77
2018-07-16T01:00:53.403Z,181.75
2018-07-16T01:03:24.855Z,181.75
2018-07-16T01:05:56.051Z,180.32
2018-07-16T01:08:29.314Z,182.60
2018-07-16T01:11:00.544Z,179.05
2018-07-16T01:13:33.435Z,179.87
2018-07-16T01:16:05.536Z,180.82
2018-07-16T01:18:36.809Z,179.32
2018-07-16T01:21:07.992Z,177.95
2018-07-16T01:23:39.687Z,176.05
2018-07-16T01:26:14.851Z,175.10
2018-07-16T01:28:46.100Z,176.55
2018-07-16T01:31:17.681Z,177.62
2018-07-16T01:33:48.668Z,181.20
2018-07-16T01:36:19.978Z,190.73
2018-07-16T01:38:50.963Z,179.72
2018-07-16T01:41:22.146Z,175.25
2018-07-16T01:43:53.312Z,177.55
2018-07-16T01:46:24.875Z,177.30
2018-07-16T01:48:55.943Z,178.72
2018-07-16T01:51:27.302Z,173.75
2018-07-16T01:53:58.298Z,175.10
2018-07-16T01:56:29.703Z,178.40
2018-07-16T01:59:00.799Z,176.35
2018-07-16T02:01:31.963Z,175.72
2018-07-16T02:04:03.179Z,174.12
2018-07-16T02:06:34.483Z,180.18
2018-07-16T02:09:05.548Z,177.25
2018-07-16T02:11:36.942Z,179.93
2018-07-16T02:14:07.935Z,174.97
2018-07-16T02:16:39.130Z,179.45
2018-07-16T02:19:10.279Z,178.23
2018-07-16T02:21:41.431Z,177.97
2018-07-16T02:24:12.938Z,180.15
2018-07-16T02:26:44.087Z,175.40
2018-07-16T02:29:15.277Z,178.50
2018-07-16T02:31:46.857Z,179.80
2018-07-16T02:34:18.029Z,175.85
2018-07-16T02:36:49.526Z,177.05
2018-07-16T02:39:20.605Z,179.82
2018-07-16T02:41:51.718Z,178.97
2018-07-16T02:44:22.838Z,178.80
2018-07-16T02:46:53.947Z,174.85
2018-07-16T02:49:25.352Z,176.22
2018-07-16T02:51:56.950Z,174.45
2018-07-16T02:54:27.994Z,175.75
2018-07-16T02:56:59.168Z,181.37
2018-07-16T02:59:30.458Z,179.40
2018-07-16T03:02:02.166Z,181.25
2018-07-16T03:04:33.238Z,184.18
2018-07-16T03:07:04.339Z,187.88
2018-07-16T03:09:35.407Z,183.37
2018-07-16T03:12:06.548Z,182.35
2018-07-16T03:14:37.570Z,180.82
2018-07-16T03:17:09.081Z,175.10
2018-07-16T03:19:40.381Z,175.62
2018-07-16T03:22:11.824Z,180.00
2018-07-16T03:24:43.049Z,178.87
2018-07-16T03:27:25.196Z,176.25
2018-07-16T03:29:56.271Z,177.27
2018-07-16T03:32:27.555Z,177.78
2018-07-16T03:34:58.634Z,183.07
2018-07-16T03:37:30.932Z,175.18
2018-07-16T03:40:03.135Z,185.18
2018-07-16T03:42:35.406Z,181.00
2018-07-16T03:45:11.276Z,185.60
2018-07-16T03:47:42.467Z,184.97
2018-07-16T03:50:15.999Z,182.57
2018-07-16T03:52:47.092Z,184.70
2018-07-16T03:55:18.196Z,187.18
2018-07-16T03:57:49.719Z,175.53
2018-07-16T04:00:21.126Z,178.95
2018-07-16T04:02:52.224Z,181.90
2018-07-16T04:05:23.282Z,179.75
2018-07-16T04:07:54.435Z,179.03
2018-07-16T04:10:25.973Z,180.35
2018-07-16T04:12:57.172Z,178.87
2018-07-16T04:15:28.235Z,181.93
2018-07-16T04:17:59.596Z,178.35
2018-07-16T04:20:32.099Z,183.52
2018-07-16T04:23:04.370Z,179.38
2018-07-16T04:25:36.005Z,182.15
2018-07-16T04:28:07.794Z,178.23
2018-07-16T04:30:38.985Z,180.57
2018-07-16T04:33:12.011Z,177.22
2018-07-16T04:35:43.564Z,179.63
2018-07-16T04:38:14.751Z,179.87
2018-07-16T04:40:45.868Z,181.18
2018-07-16T04:43:17.496Z,176.82
2018-07-16T04:45:49.280Z,179.78
2018-07-16T04:48:20.579Z,178.85
2018-07-16T04:50:51.835Z,176.75
2018-07-16T04:53:23.075Z,171.05
2018-07-16T04:55:54.307Z,173.60
2018-07-16T04:58:27.133Z,173.65
2018-07-16T05:00:58.503Z,176.90
2018-07-16T05:03:29.628Z,180.18
2018-07-16T05:06:00.929Z,177.10
2018-07-16T05:08:32.698Z,172.95
2018-07-16T05:11:04.105Z,174.62
2018-07-16T05:13:35.283Z,175.03
2018-07-16T05:16:07.180Z,172.87
2018-07-16T05:18:38.429Z,175.97
2018-07-16T05:21:09.629Z,177.05
2018-07-16T05:23:40.660Z,175.20
2018-07-16T05:26:11.911Z,175.75
2018-07-16T05:28:44.294Z,176.25
2018-07-16T05:31:15.487Z,176.57
2018-07-16T05:33:46.688Z,179.40
2018-07-16T05:36:17.735Z,177.30
2018-07-16T05:38:48.991Z,179.82
2018-07-16T05:41:20.364Z,177.72
2018-07-16T05:43:52.771Z,181.50
2018-07-16T05:46:25.586Z,182.35
2018-07-16T05:48:56.667Z,176.85
2018-07-16T05:51:28.021Z,180.20
2018-07-16T05:53:59.033Z,183.62
2018-07-16T05:56:30.213Z,185.82
2018-07-16T05:59:01.385Z,185.45
2018-07-16T06:01:32.696Z,186.00
2018-07-16T06:04:04.067Z,187.80
2018-07-16T06:06:35.402Z,179.38
2018-07-16T06:09:10.441Z,181.57
2018-07-16T06:11:41.873Z,184.22
2018-07-16T06:14:16.832Z,187.57
2018-07-16T06:16:47.898Z,186.47
2018-07-16T06:19:19.163Z,183.72
2018-07-16T06:21:51.332Z,192.55
2018-07-16T06:24:22.407Z,188.32
2018-07-16T06:26:53.467Z,192.85
2018-07-16T06:29:25.082Z,187.53
2018-07-16T06:31:56.195Z,190.03
2018-07-16T06:37:30.500Z,186.03
2018-07-16T06:40:02.660Z,186.40
2018-07-16T06:42:33.531Z,187.55
2018-07-16T06:45:04.585Z,187.27
2018-07-16T06:47:36.221Z,189.03
2018-07-16T06:50:07.517Z,184.18
2018-07-16T06:52:38.479Z,188.15
2018-07-16T06:55:09.604Z,191.65
2018-07-16T06:57:40.972Z,184.90
2018-07-16T07:00:12.956Z,189.85
2018-07-16T07:02:44.704Z,185.28
2018-07-16T07:05:15.898Z,185.57
2018-07-16T07:07:47.998Z,185.05
2018-07-16T07:10:18.981Z,186.85
2018-07-16T07:12:49.967Z,189.30
2018-07-16T07:15:21.697Z,188.18
2018-07-16T07:17:52.544Z,185.48
2018-07-16T07:20:27.209Z,190.73
2018-07-16T07:22:58.098Z,188.78
2018-07-16T07:25:29.639Z,181.25
2018-07-16T07:28:01.120Z,180.48
2018-07-16T07:30:32.653Z,183.27
2018-07-16T07:33:05.012Z,184.75
2018-07-16T07:35:36.588Z,186.77
2018-07-16T07:38:08.094Z,189.05
2018-07-16T07:40:39.044Z,184.52
2018-07-16T07:43:11.039Z,184.43
2018-07-16T07:45:42.013Z,188.15
2018-07-16T07:48:14.607Z,193.35
2018-07-16T07:50:45.526Z,191.55
2018-07-16T07:53:17.245Z,187.50
2018-07-16T07:55:49.780Z,187.22
2018-07-16T07:58:28.384Z,266.85
2018-07-16T08:01:12.911Z,192.22
2018-07-16T08:03:53.433Z,193.17
2018-07-16T08:06:25.888Z,185.75
2018-07-16T08:09:02.916Z,187.97
2018-07-16T08:11:43.567Z,205.70
2018-07-16T08:14:15.791Z,188.70
2018-07-16T08:16:46.855Z,190.85
2018-07-16T08:19:17.815Z,189.43
2018-07-16T08:21:49.073Z,192.85
2018-07-16T08:24:19.978Z,187.30
2018-07-16T08:26:51.145Z,190.97
2018-07-16T08:29:22.546Z,182.10
2018-07-16T08:31:53.687Z,187.82
2018-07-16T08:34:24.821Z,186.75
2018-07-16T08:36:55.776Z,189.75
2018-07-16T08:39:26.894Z,194.05
2018-07-16T08:41:57.867Z,187.22
2018-07-16T08:44:28.860Z,187.47
2018-07-16T08:46:59.918Z,187.10
2018-07-16T08:49:31.002Z,190.95
2018-07-16T08:52:02.431Z,185.75
2018-07-16T08:54:33.569Z,187.07
2018-07-16T08:57:04.697Z,192.28
2018-07-16T08:59:35.823Z,192.50
2018-07-16T09:02:07.100Z,188.70
2018-07-16T09:04:38.447Z,193.30
2018-07-16T09:07:10.103Z,189.67
2018-07-16T09:09:41.207Z,191.77
2018-07-16T09:12:12.221Z,183.87
2018-07-16T09:14:43.141Z,187.22
2018-07-16T09:17:14.103Z,190.57
2018-07-16T09:19:45.250Z,191.20
2018-07-16T09:22:16.171Z,189.67
2018-07-16T09:24:47.320Z,191.77
2018-07-16T09:27:18.482Z,198.23
2018-07-16T09:29:49.523Z,187.60
2018-07-16T09:32:20.422Z,190.62
2018-07-16T09:34:52.866Z,196.68
2018-07-16T09:37:24.346Z,196.18
2018-07-16T09:39:59.809Z,189.50
2018-07-16T09:42:33.696Z,184.72
2018-07-16T09:45:08.636Z,183.07
2018-07-16T09:47:46.979Z,187.65
2018-07-16T09:50:34.169Z,193.30
2018-07-16T09:53:10.126Z,194.40
2018-07-16T09:55:41.067Z,187.62
2018-07-16T09:58:12.081Z,190.20
2018-07-16T10:00:48.205Z,190.05
2018-07-16T10:03:19.357Z,190.12
2018-07-16T10:05:50.303Z,188.70
2018-07-16T10:08:21.153Z,194.43
2018-07-16T10:10:52.035Z,185.43
2018-07-16T10:13:23.159Z,189.52
2018-07-16T10:15:54.309Z,185.25
2018-07-16T10:18:25.469Z,185.25
2018-07-16T10:20:56.549Z,186.50
2018-07-16T10:23:27.504Z,190.90
2018-07-16T10:25:58.595Z,189.30
2018-07-16T10:28:30.091Z,189.75
2018-07-16T10:31:01.429Z,191.65
2018-07-16T10:33:42.805Z,188.07
2018-07-16T10:36:13.690Z,187.77
2018-07-16T10:38:50.484Z,195.12
2018-07-16T10:41:22.217Z,193.62
2018-07-16T10:43:53.478Z,192.87
2018-07-16T10:46:27.376Z,190.85
2018-07-16T10:48:59.066Z,192.45
2018-07-16T10:51:30.431Z,193.72
2018-07-16T10:54:02.920Z,201.00
2018-07-16T10:56:46.809Z,243.88
2018-07-16T10:59:33.249Z,209.07
2018-07-16T11:02:06.452Z,194.13
2018-07-16T11:04:39.805Z,218.80
2018-07-16T11:07:12.788Z,194.87
2018-07-16T11:09:43.681Z,196.55
2018-07-16T11:12:14.836Z,188.60
2018-07-16T11:14:45.928Z,194.60
2018-07-16T11:17:17.009Z,188.72
2018-07-16T11:19:48.206Z,187.40
2018-07-16T11:22:19.051Z,189.10
2018-07-16T11:24:50.903Z,200.87
2018-07-16T11:27:21.743Z,194.72
2018-07-16T11:29:53.429Z,185.05
2018-07-16T11:32:24.991Z,189.28
2018-07-16T11:34:56.087Z,191.15
2018-07-16T11:37:26.876Z,190.80
2018-07-16T11:39:57.776Z,190.85
2018-07-16T11:42:28.797Z,191.47
2018-07-16T11:44:59.796Z,190.53
2018-07-16T11:47:30.750Z,187.90
2018-07-16T11:50:02.629Z,186.97
2018-07-16T11:52:34.004Z,190.20
2018-07-16T11:55:05.868Z,190.43
2018-07-16T11:57:37.359Z,188.40
2018-07-16T12:00:10.204Z,189.20
2018-07-16T12:02:41.272Z,188.30
2018-07-16T12:05:12.486Z,186.18
2018-07-16T12:07:43.928Z,192.05
2018-07-16T12:10:16.640Z,184.45
2018-07-16T12:12:47.849Z,185.85
2018-07-16T12:15:18.796Z,188.30
2018-07-16T12:17:49.705Z,185.50
2018-07-16T12:20:20.856Z,189.05
2018-07-16T12:22:51.889Z,183.22
2018-07-16T12:25:23.204Z,191.55
2018-07-16T12:27:54.051Z,183.05
2018-07-16T12:30:25.323Z,182.45
2018-07-16T12:32:56.641Z,185.73
2018-07-16T12:35:27.519Z,184.67
2018-07-16T12:37:58.627Z,184.55
2018-07-16T12:40:29.591Z,182.07
2018-07-16T12:43:00.955Z,183.18
2018-07-16T12:45:32.588Z,184.78
2018-07-16T12:48:06.709Z,186.80
2018-07-16T12:50:38.876Z,182.37
2018-07-16T12:53:12.196Z,182.12
2018-07-16T12:55:43.140Z,175.60
2018-07-16T12:58:14.371Z,176.42
2018-07-16T13:00:45.227Z,176.37
2018-07-16T13:03:16.324Z,174.87
2018-07-16T13:05:47.496Z,177.53
2018-07-16T13:08:18.548Z,178.18
2018-07-16T13:10:50.443Z,178.57
2018-07-16T13:13:24.853Z,178.10
2018-07-16T13:15:58.273Z,176.32
2018-07-16T13:18:32.538Z,178.82
2018-07-16T13:21:05.590Z,183.72
2018-07-16T13:23:36.994Z,178.80
2018-07-16T13:26:08.409Z,189.70
2018-07-16T13:28:40.070Z,180.90
2018-07-16T13:31:11.418Z,183.60
2018-07-16T13:33:42.781Z,180.52
2018-07-16T13:36:14.331Z,184.10
2018-07-16T13:38:45.733Z,180.65
2018-07-16T13:41:17.572Z,179.45
2018-07-16T13:43:49.230Z,178.78
2018-07-16T13:46:20.473Z,181.22
2018-07-16T13:48:51.620Z,182.40
2018-07-16T13:51:23.135Z,180.37
2018-07-16T13:53:54.631Z,175.45
2018-07-16T13:56:25.991Z,179.85
2018-07-16T13:58:57.538Z,178.65
2018-07-16T14:01:29.130Z,181.00
2018-07-16T14:04:00.423Z,183.85
2018-07-16T14:06:32.540Z,175.87
2018-07-16T14:09:05.345Z,179.55
2018-07-16T14:11:36.424Z,176.90
2018-07-16T14:14:08.176Z,176.90
2018-07-16T14:16:39.768Z,173.72
2018-07-16T14:19:11.050Z,179.70
2018-07-16T14:21:42.459Z,179.40
2018-07-16T14:24:13.740Z,178.82
2018-07-16T14:26:45.335Z,178.87
2018-07-16T14:29:18.043Z,179.35
2018-07-16T14:31:49.410Z,179.05
2018-07-16T14:34:20.499Z,177.75
2018-07-16T14:36:52.050Z,179.57
2018-07-16T14:39:23.325Z,178.53
2018-07-16T14:41:54.887Z,181.90
2018-07-16T14:44:26.001Z,185.15
2018-07-16T14:46:57.265Z,182.22
2018-07-16T14:49:28.743Z,181.65
2018-07-16T14:52:00.155Z,186.57
2018-07-16T14:54:32.613Z,178.20
2018-07-16T14:57:04.255Z,177.10
2018-07-16T14:59:35.916Z,179.03
2018-07-16T15:02:07.035Z,180.03
2018-07-16T15:04:38.273Z,176.30
2018-07-16T15:07:09.646Z,179.10
2018-07-16T15:09:41.517Z,180.25
2018-07-16T15:12:13.783Z,180.85
2018-07-16T15:14:45.260Z,179.87
2018-07-16T15:17:16.771Z,178.05
2018-07-16T15:19:48.575Z,180.65
2018-07-16T15:22:19.859Z,177.95
2018-07-16T15:24:51.245Z,182.20
2018-07-16T15:27:22.387Z,179.10
2018-07-16T15:29:53.944Z,178.82
2018-07-16T15:32:25.448Z,182.60
2018-07-16T15:34:57.011Z,177.40
2018-07-16T15:37:29.004Z,179.72
2018-07-16T15:40:00.435Z,176.12
2018-07-16T15:42:32.597Z,186.85
2018-07-16T15:45:04.518Z,182.85
2018-07-16T15:47:35.928Z,178.87
2018-07-16T15:50:07.799Z,180.80
2018-07-16T15:52:39.311Z,183.32
2018-07-16T15:55:11.985Z,183.50
2018-07-16T15:57:43.644Z,180.90
2018-07-16T16:00:15.121Z,183.37
2018-07-16T16:02:46.175Z,182.05
2018-07-16T16:05:20.973Z,181.40
2018-07-16T16:07:52.389Z,183.45
2018-07-16T16:10:26.971Z,183.32
2018-07-16T16:12:58.425Z,184.85
2018-07-16T16:15:30.815Z,180.67
2018-07-16T16:18:03.108Z,189.37
2018-07-16T16:20:34.799Z,182.53
2018-07-16T16:23:08.204Z,181.95
2018-07-16T16:25:41.098Z,183.62
2018-07-16T16:28:13.911Z,183.47
2018-07-16T16:30:45.280Z,180.95
2018-07-16T16:33:17.684Z,186.45
2018-07-16T16:35:48.935Z,190.38
2018-07-16T16:38:20.066Z,188.85
2018-07-16T16:40:52.895Z,192.53
2018-07-16T16:43:25.417Z,192.80
2018-07-16T16:45:57.265Z,188.18
2018-07-16T16:48:28.980Z,188.40
2018-07-16T16:51:00.287Z,185.85
2018-07-16T16:53:31.667Z,189.77
2018-07-16T16:56:04.000Z,187.32
2018-07-16T16:58:35.922Z,188.62
2018-07-16T17:01:07.455Z,181.05
2018-07-16T17:03:38.867Z,188.62
2018-07-16T17:06:10.311Z,184.85
2018-07-16T17:08:41.904Z,181.75
2018-07-16T17:11:13.647Z,183.62
2018-07-16T17:13:44.644Z,187.57
2018-07-16T17:16:16.180Z,179.60
2018-07-16T17:18:47.300Z,183.35
2018-07-16T17:21:18.849Z,187.10
2018-07-16T17:23:50.288Z,184.65
2018-07-16T17:26:21.248Z,191.18
2018-07-16T17:28:52.480Z,190.32
2018-07-16T17:31:23.939Z,183.05
2018-07-16T17:33:55.607Z,181.75
2018-07-16T17:36:26.895Z,183.93
2018-07-16T17:38:58.296Z,184.55
2018-07-16T17:41:29.586Z,184.00
2018-07-16T17:44:01.716Z,182.50
2018-07-16T17:46:33.471Z,187.68
2018-07-16T17:49:04.867Z,190.18
2018-07-16T17:51:37.680Z,185.40
2018-07-16T17:54:11.824Z,186.15
2018-07-16T17:56:47.933Z,188.30
2018-07-16T17:59:23.504Z,188.22
2018-07-16T18:02:07.042Z,198.85
2018-07-16T18:04:48.661Z,199.42
2018-07-16T18:07:26.772Z,188.27
2018-07-16T18:10:08.448Z,189.07
2018-07-16T18:12:43.275Z,182.97
2018-07-16T18:15:20.851Z,191.57
2018-07-16T18:17:59.498Z,181.37
2018-07-16T18:20:33.120Z,187.55
2018-07-16T18:23:19.271Z,176.05
2018-07-16T18:25:59.828Z,182.57
2018-07-16T18:28:38.108Z,182.78
2018-07-16T18:31:10.461Z,182.72
2018-07-16T18:33:41.789Z,181.82
2018-07-16T18:36:13.837Z,179.47
2018-07-16T18:38:45.427Z,183.68
2018-07-16T18:41:16.628Z,188.27
2018-07-16T18:43:48.770Z,185.07
2018-07-16T18:46:21.447Z,179.87
2018-07-16T18:48:56.249Z,182.20
2018-07-16T18:51:28.087Z,173.55
2018-07-16T18:54:00.172Z,178.38
2018-07-16T18:56:41.891Z,183.27
2018-07-16T18:59:14.221Z,181.50
2018-07-16T19:01:46.627Z,183.20
2018-07-16T19:04:19.499Z,182.43
2018-07-16T19:06:52.182Z,179.87
2018-07-16T19:09:24.039Z,182.75
2018-07-16T19:11:56.023Z,181.87
2018-07-16T19:14:28.756Z,181.78
2018-07-16T19:17:00.713Z,183.07
2018-07-16T19:19:33.638Z,179.03
2018-07-16T19:22:06.551Z,180.63
2018-07-16T19:24:37.798Z,181.52
2018-07-16T19:27:08.979Z,178.45
2018-07-16T19:29:40.256Z,183.70
2018-07-16T19:32:11.434Z,178.25
2018-07-16T19:34:42.510Z,181.18
2018-07-16T19:37:13.640Z,183.55
2018-07-16T19:39:45.168Z,185.88
2018-07-16T19:42:16.643Z,179.82
2018-07-16T19:44:47.908Z,183.10
2018-07-16T19:47:19.138Z,181.25
2018-07-16T19:49:50.563Z,179.20
2018-07-16T19:52:21.821Z,182.65
2018-07-16T19:54:55.432Z,180.05
2018-07-16T19:57:30.188Z,179.45
2018-07-16T20:00:02.076Z,181.30
2018-07-16T20:02:33.727Z,180.05
2018-07-16T20:05:08.088Z,181.12
2018-07-16T20:07:39.995Z,183.87
2018-07-16T20:10:11.541Z,181.50
2018-07-16T20:12:42.918Z,185.32
2018-07-16T20:15:20.368Z,176.50
2018-07-16T20:17:52.542Z,177.55
2018-07-16T20:20:27.178Z,177.97
2018-07-16T20:22:59.688Z,172.40
2018-07-16T20:25:31.935Z,174.32
2018-07-16T20:28:03.871Z,173.78
2018-07-16T20:30:37.926Z,179.03
2018-07-16T20:33:11.586Z,177.47
2018-07-16T20:35:42.696Z,174.68
2018-07-16T20:38:13.804Z,176.75
2018-07-16T20:40:44.805Z,175.90
2018-07-16T20:43:15.703Z,179.05
2018-07-16T20:45:46.951Z,177.45
2018-07-16T20:48:18.091Z,173.65
2018-07-16T20:50:49.146Z,176.37
2018-07-16T20:53:20.184Z,173.78
2018-07-16T20:55:51.503Z,177.10
2018-07-16T20:58:22.652Z,182.43
2018-07-16T21:00:53.888Z,176.93
2018-07-16T21:03:27.477Z,176.00
2018-07-16T21:05:59.598Z,174.55
2018-07-16T21:08:32.098Z,175.72
2018-07-16T21:11:03.197Z,174.20
2018-07-16T21:13:34.404Z,172.95
2018-07-16T21:16:05.521Z,175.70
2018-07-16T21:18:36.511Z,176.70
2018-07-16T21:21:07.770Z,172.28
2018-07-16T21:23:39.307Z,176.42
2018-07-16T21:26:10.336Z,177.32
2018-07-16T21:28:41.302Z,175.42
2018-07-16T21:31:12.200Z,175.47
2018-07-16T21:33:43.385Z,175.90
2018-07-16T21:36:14.520Z,177.80
2018-07-16T21:38:45.443Z,172.75
2018-07-16T21:41:16.511Z,172.87
2018-07-16T21:43:47.492Z,174.97
2018-07-16T21:46:18.621Z,179.75
2018-07-16T21:48:49.893Z,172.75
2018-07-16T21:51:20.870Z,172.15
2018-07-16T21:53:52.060Z,178.00
2018-07-16T21:56:23.316Z,172.40
2018-07-16T21:58:54.242Z,173.95
2018-07-16T22:01:25.467Z,173.93
2018-07-16T22:03:56.464Z,170.97
2018-07-16T22:06:27.587Z,174.38
2018-07-16T22:08:58.687Z,176.82
2018-07-16T22:11:29.634Z,170.40
2018-07-16T22:14:01.048Z,173.47
2018-07-16T22:16:32.197Z,171.80
2018-07-16T22:19:03.427Z,170.50
2018-07-16T22:21:34.383Z,171.43
2018-07-16T22:24:05.407Z,171.02
2018-07-16T22:26:36.518Z,171.68
2018-07-16T22:29:07.758Z,169.05
2018-07-16T22:31:38.792Z,173.85
2018-07-16T22:34:10.012Z,172.40
2018-07-16T22:36:41.041Z,170.45
2018-07-16T22:39:12.510Z,172.47
2018-07-16T22:41:43.623Z,172.40
2018-07-16T22:44:14.564Z,176.53
2018-07-16T22:46:45.977Z,171.60
2018-07-16T22:52:20.451Z,173.57
2018-07-16T22:54:51.363Z,172.32
2018-07-16T22:57:22.410Z,172.32
2018-07-16T22:59:53.558Z,169.57
2018-07-16T23:02:24.628Z,170.30
2018-07-16T23:04:56.475Z,169.80
2018-07-16T23:07:27.583Z,172.70
2018-07-16T23:09:58.692Z,171.70
2018-07-16T23:12:30.213Z,172.98
2018-07-16T23:15:01.405Z,172.55
2018-07-16T23:17:32.483Z,172.70
2018-07-16T23:20:04.163Z,168.65
2018-07-16T23:22:45.103Z,170.35
2018-07-16T23:25:20.434Z,168.30
2018-07-16T23:27:51.465Z,171.82
2018-07-16T23:30:22.962Z,170.10
2018-07-16T23:32:54.495Z,171.93
2018-07-16T23:35:25.892Z,168.40
2018-07-16T23:37:56.879Z,169.85
2018-07-16T23:40:28.139Z,171.43
2018-07-16T23:42:59.147Z,168.07
2018-07-16T23:45:32.360Z,169.85
2018-07-16T23:48:05.173Z,172.10
2018-07-16T23:50:36.263Z,168.62
2018-07-16T23:53:09.774Z,168.65
2018-07-16T23:55:40.830Z,169.25
2018-07-16T23:58:13.135Z,168.00
